sensor_id;sensor_type;location;lat;lon;timestamp;temperature;humidity
25342;DHT22;13298;48.792;9.154;2023-05-14T00:02:22;11.20;99.90
25342;DHT22;13298;48.792;9.154;2023-05-14T00:04:47;11.20;99.90
25342;DHT22;13298;48.792;9.154;2023-05-14T00:07:13;11.20;99.90
25342;DHT22;13298;48.792;9.154;2023-05-14T00:09:39;11.20;99.90
25342;DHT22;13298;48.792;9.154;2023-05-14T00:12:05;11.20;99.90
25342;DHT22;13298;48.792;9.154;2023-05-14T00:14:30;11.20;99.90
25342;DHT22;13298;48.792;9.154;2023-05-14T00:16:56;11.20;99.90
25342;DHT22;13298;48.792;9.154;2023-05-14T00:19:24;11.10;99.90
25342;DHT22;13298;48.792;9.154;2023-05-14T00:21:49;11.10;99.90
25342;DHT22;13298;48.792;9.154;2023-05-14T00:24:15;11.00;99.90
25342;DHT22;13298;48.792;9.154;2023-05-14T00:26:41;11.00;99.90
25342;DHT22;13298;48.792;9.154;2023-05-14T00:29:06;11.00;99.90
25342;DHT22;13298;48.792;9.154;2023-05-14T00:31:32;10.90;99.90
25342;DHT22;13298;48.792;9.154;2023-05-14T00:33:58;10.90;99.90
25342;DHT22;13298;48.792;9.154;2023-05-14T00:36:23;10.80;99.90
25342;DHT22;13298;48.792;9.154;2023-05-14T00:38:49;10.80;99.90
25342;DHT22;13298;48.792;9.154;2023-05-14T00:41:15;10.80;99.90
25342;DHT22;13298;48.792;9.154;2023-05-14T00:43:41;10.70;99.90
25342;DHT22;13298;48.792;9.154;2023-05-14T00:46:06;10.70;99.90
25342;DHT22;13298;48.792;9.154;2023-05-14T00:48:32;10.70;99.90
25342;DHT22;13298;48.792;9.154;2023-05-14T00:50:58;10.70;99.90
25342;DHT22;13298;48.792;9.154;2023-05-14T00:53:24;10.60;99.90
25342;DHT22;13298;48.792;9.154;2023-05-14T00:55:50;10.60;99.90
25342;DHT22;13298;48.792;9.154;2023-05-14T00:58:16;10.60;99.90
25342;DHT22;13298;48.792;9.154;2023-05-14T01:00:43;10.60;99.90
25342;DHT22;13298;48.792;9.154;2023-05-14T01:03:09;10.50;99.90
25342;DHT22;13298;48.792;9.154;2023-05-14T01:06:12;10.50;99.90
25342;DHT22;13298;48.792;9.154;2023-05-14T01:11:46;10.40;99.90
25342;DHT22;13298;48.792;9.154;2023-05-14T01:14:21;10.30;99.90
25342;DHT22;13298;48.792;9.154;2023-05-14T01:16:53;10.20;99.90
25342;DHT22;13298;48.792;9.154;2023-05-14T01:19:36;10.20;99.90
25342;DHT22;13298;48.792;9.154;2023-05-14T01:22:04;10.10;99.90
25342;DHT22;13298;48.792;9.154;2023-05-14T01:24:30;10.00;99.90
25342;DHT22;13298;48.792;9.154;2023-05-14T01:27:03;10.00;99.90
25342;DHT22;13298;48.792;9.154;2023-05-14T01:29:33;9.90;99.90
25342;DHT22;13298;48.792;9.154;2023-05-14T01:31:59;9.80;99.90
25342;DHT22;13298;48.792;9.154;2023-05-14T01:34:27;9.70;99.90
25342;DHT22;13298;48.792;9.154;2023-05-14T01:36:55;9.70;99.90
25342;DHT22;13298;48.792;9.154;2023-05-14T01:39:23;9.60;99.90
25342;DHT22;13298;48.792;9.154;2023-05-14T01:41:50;9.60;99.90
25342;DHT22;13298;48.792;9.154;2023-05-14T01:44:17;9.60;99.90
25342;DHT22;13298;48.792;9.154;2023-05-14T01:46:43;9.50;99.90
25342;DHT22;13298;48.792;9.154;2023-05-14T01:49:08;9.50;99.90
25342;DHT22;13298;48.792;9.154;2023-05-14T01:51:34;9.50;99.90
25342;DHT22;13298;48.792;9.154;2023-05-14T01:54:00;9.50;99.90
25342;DHT22;13298;48.792;9.154;2023-05-14T01:56:25;9.50;99.90
25342;DHT22;13298;48.792;9.154;2023-05-14T01:58:51;9.50;99.90
25342;DHT22;13298;48.792;9.154;2023-05-14T02:01:17;9.40;99.90
25342;DHT22;13298;48.792;9.154;2023-05-14T02:03:42;9.40;99.90
25342;DHT22;13298;48.792;9.154;2023-05-14T02:06:08;9.40;99.90
25342;DHT22;13298;48.792;9.154;2023-05-14T02:08:34;9.40;99.90
25342;DHT22;13298;48.792;9.154;2023-05-14T02:11:00;9.30;99.90
25342;DHT22;13298;48.792;9.154;2023-05-14T02:13:25;9.30;99.90
25342;DHT22;13298;48.792;9.154;2023-05-14T02:15:51;9.20;99.90
25342;DHT22;13298;48.792;9.154;2023-05-14T02:18:17;9.20;99.90
25342;DHT22;13298;48.792;9.154;2023-05-14T02:20:43;9.20;99.90
25342;DHT22;13298;48.792;9.154;2023-05-14T02:23:08;9.10;99.90
25342;DHT22;13298;48.792;9.154;2023-05-14T02:25:34;9.10;99.90
25342;DHT22;13298;48.792;9.154;2023-05-14T02:28:00;9.10;99.90
25342;DHT22;13298;48.792;9.154;2023-05-14T02:30:25;9.20;99.90
25342;DHT22;13298;48.792;9.154;2023-05-14T02:32:51;9.20;99.90
25342;DHT22;13298;48.792;9.154;2023-05-14T02:35:17;9.30;99.90
25342;DHT22;13298;48.792;9.154;2023-05-14T02:37:43;9.30;99.90
25342;DHT22;13298;48.792;9.154;2023-05-14T02:40:09;9.30;99.90
25342;DHT22;13298;48.792;9.154;2023-05-14T02:42:35;9.40;99.90
25342;DHT22;13298;48.792;9.154;2023-05-14T02:45:00;9.40;99.90
25342;DHT22;13298;48.792;9.154;2023-05-14T02:47:26;9.40;99.90
25342;DHT22;13298;48.792;9.154;2023-05-14T02:49:52;9.40;99.90
25342;DHT22;13298;48.792;9.154;2023-05-14T02:52:17;9.40;99.90
25342;DHT22;13298;48.792;9.154;2023-05-14T02:54:43;9.50;99.90
25342;DHT22;13298;48.792;9.154;2023-05-14T02:57:09;9.50;99.90
25342;DHT22;13298;48.792;9.154;2023-05-14T02:59:34;9.50;99.90
25342;DHT22;13298;48.792;9.154;2023-05-14T03:02:00;9.60;99.90
25342;DHT22;13298;48.792;9.154;2023-05-14T03:04:26;9.60;99.90
25342;DHT22;13298;48.792;9.154;2023-05-14T03:06:52;9.60;99.90
25342;DHT22;13298;48.792;9.154;2023-05-14T03:09:17;9.60;99.90
25342;DHT22;13298;48.792;9.154;2023-05-14T03:11:44;9.60;99.90
25342;DHT22;13298;48.792;9.154;2023-05-14T03:14:10;9.60;99.90
25342;DHT22;13298;48.792;9.154;2023-05-14T03:16:35;9.70;99.90
25342;DHT22;13298;48.792;9.154;2023-05-14T03:19:01;9.70;99.90
25342;DHT22;13298;48.792;9.154;2023-05-14T03:21:27;9.70;99.90
25342;DHT22;13298;48.792;9.154;2023-05-14T03:23:52;9.60;99.90
25342;DHT22;13298;48.792;9.154;2023-05-14T03:26:18;9.70;99.90
25342;DHT22;13298;48.792;9.154;2023-05-14T03:28:44;9.70;99.90
25342;DHT22;13298;48.792;9.154;2023-05-14T03:31:10;9.70;99.90
25342;DHT22;13298;48.792;9.154;2023-05-14T03:33:35;9.70;99.90
25342;DHT22;13298;48.792;9.154;2023-05-14T03:36:01;9.70;99.90
25342;DHT22;13298;48.792;9.154;2023-05-14T03:38:27;9.70;99.90
25342;DHT22;13298;48.792;9.154;2023-05-14T03:40:53;9.70;99.90
25342;DHT22;13298;48.792;9.154;2023-05-14T03:43:18;9.70;99.90
25342;DHT22;13298;48.792;9.154;2023-05-14T03:45:44;9.80;99.90
25342;DHT22;13298;48.792;9.154;2023-05-14T03:48:10;9.80;99.90
25342;DHT22;13298;48.792;9.154;2023-05-14T03:50:36;9.70;99.90
25342;DHT22;13298;48.792;9.154;2023-05-14T03:53:01;9.80;99.90
25342;DHT22;13298;48.792;9.154;2023-05-14T03:55:27;9.70;99.90
25342;DHT22;13298;48.792;9.154;2023-05-14T03:57:53;9.70;99.90
25342;DHT22;13298;48.792;9.154;2023-05-14T04:00:18;9.70;99.90
25342;DHT22;13298;48.792;9.154;2023-05-14T04:02:44;9.70;99.90
25342;DHT22;13298;48.792;9.154;2023-05-14T04:05:10;9.70;99.90
25342;DHT22;13298;48.792;9.154;2023-05-14T04:07:36;9.70;99.90
25342;DHT22;13298;48.792;9.154;2023-05-14T04:10:02;9.70;99.90
25342;DHT22;13298;48.792;9.154;2023-05-14T04:12:28;9.70;99.90
25342;DHT22;13298;48.792;9.154;2023-05-14T04:14:54;9.70;99.90
25342;DHT22;13298;48.792;9.154;2023-05-14T04:17:19;9.80;99.90
25342;DHT22;13298;48.792;9.154;2023-05-14T04:19:45;9.70;99.90
25342;DHT22;13298;48.792;9.154;2023-05-14T04:22:11;9.80;99.90
25342;DHT22;13298;48.792;9.154;2023-05-14T04:24:36;9.80;99.90
25342;DHT22;13298;48.792;9.154;2023-05-14T04:27:02;9.80;99.90
25342;DHT22;13298;48.792;9.154;2023-05-14T04:29:28;9.90;99.90
25342;DHT22;13298;48.792;9.154;2023-05-14T04:31:54;9.80;99.90
25342;DHT22;13298;48.792;9.154;2023-05-14T04:34:20;9.90;99.90
25342;DHT22;13298;48.792;9.154;2023-05-14T04:36:46;9.90;99.90
25342;DHT22;13298;48.792;9.154;2023-05-14T04:39:11;9.90;99.90
25342;DHT22;13298;48.792;9.154;2023-05-14T04:41:37;9.90;99.90
25342;DHT22;13298;48.792;9.154;2023-05-14T04:44:03;9.90;99.90
25342;DHT22;13298;48.792;9.154;2023-05-14T04:46:29;10.00;99.90
25342;DHT22;13298;48.792;9.154;2023-05-14T04:48:55;10.00;99.90
25342;DHT22;13298;48.792;9.154;2023-05-14T04:51:21;10.00;99.90
25342;DHT22;13298;48.792;9.154;2023-05-14T04:53:47;10.00;99.90
25342;DHT22;13298;48.792;9.154;2023-05-14T04:56:13;10.00;99.90
25342;DHT22;13298;48.792;9.154;2023-05-14T04:58:39;10.00;99.90
25342;DHT22;13298;48.792;9.154;2023-05-14T05:01:04;10.00;99.90
25342;DHT22;13298;48.792;9.154;2023-05-14T05:03:30;10.00;99.90
25342;DHT22;13298;48.792;9.154;2023-05-14T05:05:56;10.00;99.90
25342;DHT22;13298;48.792;9.154;2023-05-14T05:08:22;10.00;99.90
25342;DHT22;13298;48.792;9.154;2023-05-14T05:10:48;10.10;99.90
25342;DHT22;13298;48.792;9.154;2023-05-14T05:13:13;10.10;99.90
25342;DHT22;13298;48.792;9.154;2023-05-14T05:15:41;10.10;99.90
25342;DHT22;13298;48.792;9.154;2023-05-14T05:18:07;10.20;99.90
25342;DHT22;13298;48.792;9.154;2023-05-14T05:20:33;10.20;99.90
25342;DHT22;13298;48.792;9.154;2023-05-14T05:22:59;10.20;99.90
25342;DHT22;13298;48.792;9.154;2023-05-14T05:25:25;10.30;99.90
25342;DHT22;13298;48.792;9.154;2023-05-14T05:27:51;10.40;99.90
25342;DHT22;13298;48.792;9.154;2023-05-14T05:30:17;10.40;99.90
25342;DHT22;13298;48.792;9.154;2023-05-14T05:32:43;10.40;99.90
25342;DHT22;13298;48.792;9.154;2023-05-14T05:35:08;10.50;99.90
25342;DHT22;13298;48.792;9.154;2023-05-14T05:37:34;10.50;99.90
25342;DHT22;13298;48.792;9.154;2023-05-14T05:40:00;10.60;99.90
25342;DHT22;13298;48.792;9.154;2023-05-14T05:42:25;10.60;99.90
25342;DHT22;13298;48.792;9.154;2023-05-14T05:44:51;10.60;99.90
25342;DHT22;13298;48.792;9.154;2023-05-14T05:47:17;10.60;99.90
25342;DHT22;13298;48.792;9.154;2023-05-14T05:49:42;10.60;99.90
25342;DHT22;13298;48.792;9.154;2023-05-14T05:52:08;10.60;99.90
25342;DHT22;13298;48.792;9.154;2023-05-14T05:54:34;10.60;99.90
25342;DHT22;13298;48.792;9.154;2023-05-14T05:57:00;10.60;99.90
25342;DHT22;13298;48.792;9.154;2023-05-14T05:59:26;10.60;99.90
25342;DHT22;13298;48.792;9.154;2023-05-14T06:01:51;10.60;99.90
25342;DHT22;13298;48.792;9.154;2023-05-14T06:04:17;10.70;99.90
25342;DHT22;13298;48.792;9.154;2023-05-14T06:06:43;10.80;99.90
25342;DHT22;13298;48.792;9.154;2023-05-14T06:09:08;10.80;99.90
25342;DHT22;13298;48.792;9.154;2023-05-14T06:11:34;10.90;99.90
25342;DHT22;13298;48.792;9.154;2023-05-14T06:14:00;11.00;99.90
25342;DHT22;13298;48.792;9.154;2023-05-14T06:16:26;11.10;99.90
25342;DHT22;13298;48.792;9.154;2023-05-14T06:18:53;11.30;99.90
25342;DHT22;13298;48.792;9.154;2023-05-14T06:21:19;11.40;99.90
25342;DHT22;13298;48.792;9.154;2023-05-14T06:23:45;11.50;99.90
25342;DHT22;13298;48.792;9.154;2023-05-14T06:26:11;11.70;99.90
25342;DHT22;13298;48.792;9.154;2023-05-14T06:28:36;11.80;99.90
25342;DHT22;13298;48.792;9.154;2023-05-14T06:31:02;11.90;99.90
25342;DHT22;13298;48.792;9.154;2023-05-14T06:33:28;11.90;99.90
25342;DHT22;13298;48.792;9.154;2023-05-14T06:35:57;12.00;99.90
25342;DHT22;13298;48.792;9.154;2023-05-14T06:38:23;12.10;99.90
25342;DHT22;13298;48.792;9.154;2023-05-14T06:40:49;12.30;99.90
25342;DHT22;13298;48.792;9.154;2023-05-14T06:43:15;12.30;99.90
25342;DHT22;13298;48.792;9.154;2023-05-14T06:45:40;12.50;99.90
25342;DHT22;13298;48.792;9.154;2023-05-14T06:48:06;12.50;99.90
25342;DHT22;13298;48.792;9.154;2023-05-14T06:50:34;12.60;99.90
25342;DHT22;13298;48.792;9.154;2023-05-14T06:53:00;12.60;99.90
25342;DHT22;13298;48.792;9.154;2023-05-14T06:55:26;12.70;99.90
25342;DHT22;13298;48.792;9.154;2023-05-14T06:57:51;12.80;99.90
25342;DHT22;13298;48.792;9.154;2023-05-14T07:00:17;12.90;99.90
25342;DHT22;13298;48.792;9.154;2023-05-14T07:02:43;12.90;99.90
25342;DHT22;13298;48.792;9.154;2023-05-14T07:05:10;12.90;99.90
25342;DHT22;13298;48.792;9.154;2023-05-14T07:07:35;13.00;99.90
25342;DHT22;13298;48.792;9.154;2023-05-14T07:10:01;13.10;99.90
25342;DHT22;13298;48.792;9.154;2023-05-14T07:12:27;13.10;99.90
25342;DHT22;13298;48.792;9.154;2023-05-14T07:14:52;13.20;99.90
25342;DHT22;13298;48.792;9.154;2023-05-14T07:17:18;13.20;99.90
25342;DHT22;13298;48.792;9.154;2023-05-14T07:19:44;13.20;99.90
25342;DHT22;13298;48.792;9.154;2023-05-14T07:22:10;13.20;99.90
25342;DHT22;13298;48.792;9.154;2023-05-14T07:24:35;13.20;99.90
25342;DHT22;13298;48.792;9.154;2023-05-14T07:27:01;13.20;99.90
25342;DHT22;13298;48.792;9.154;2023-05-14T07:29:27;13.30;99.90
25342;DHT22;13298;48.792;9.154;2023-05-14T07:31:54;13.40;99.90
25342;DHT22;13298;48.792;9.154;2023-05-14T07:34:20;13.50;99.90
25342;DHT22;13298;48.792;9.154;2023-05-14T07:36:45;13.60;99.90
25342;DHT22;13298;48.792;9.154;2023-05-14T07:39:11;13.70;99.90
25342;DHT22;13298;48.792;9.154;2023-05-14T07:41:37;13.80;99.90
25342;DHT22;13298;48.792;9.154;2023-05-14T07:44:03;13.90;99.90
25342;DHT22;13298;48.792;9.154;2023-05-14T07:46:29;13.90;99.90
25342;DHT22;13298;48.792;9.154;2023-05-14T07:48:54;14.10;99.90
25342;DHT22;13298;48.792;9.154;2023-05-14T07:51:20;14.20;99.90
25342;DHT22;13298;48.792;9.154;2023-05-14T07:53:46;14.50;99.90
25342;DHT22;13298;48.792;9.154;2023-05-14T07:56:11;14.60;99.90
25342;DHT22;13298;48.792;9.154;2023-05-14T07:58:37;14.80;99.90
25342;DHT22;13298;48.792;9.154;2023-05-14T08:01:03;15.00;99.90
25342;DHT22;13298;48.792;9.154;2023-05-14T08:03:31;15.20;99.90
25342;DHT22;13298;48.792;9.154;2023-05-14T08:05:58;15.50;99.90
25342;DHT22;13298;48.792;9.154;2023-05-14T08:08:23;15.90;99.90
25342;DHT22;13298;48.792;9.154;2023-05-14T08:10:49;16.10;99.90
25342;DHT22;13298;48.792;9.154;2023-05-14T08:13:15;16.20;99.90
25342;DHT22;13298;48.792;9.154;2023-05-14T08:15:41;16.40;99.90
25342;DHT22;13298;48.792;9.154;2023-05-14T08:18:06;16.50;99.90
25342;DHT22;13298;48.792;9.154;2023-05-14T08:20:32;16.40;99.90
25342;DHT22;13298;48.792;9.154;2023-05-14T08:22:58;16.10;99.90
25342;DHT22;13298;48.792;9.154;2023-05-14T08:25:23;16.00;99.90
25342;DHT22;13298;48.792;9.154;2023-05-14T08:27:49;15.90;99.90
25342;DHT22;13298;48.792;9.154;2023-05-14T08:30:15;15.80;99.90
25342;DHT22;13298;48.792;9.154;2023-05-14T08:32:42;15.80;99.90
25342;DHT22;13298;48.792;9.154;2023-05-14T08:35:08;15.90;99.90
25342;DHT22;13298;48.792;9.154;2023-05-14T08:37:33;16.10;99.90
25342;DHT22;13298;48.792;9.154;2023-05-14T08:39:59;16.30;99.90
25342;DHT22;13298;48.792;9.154;2023-05-14T08:42:25;16.60;99.90
25342;DHT22;13298;48.792;9.154;2023-05-14T08:44:59;16.90;99.90
25342;DHT22;13298;48.792;9.154;2023-05-14T08:47:28;17.20;99.90
25342;DHT22;13298;48.792;9.154;2023-05-14T08:50:03;17.50;99.90
25342;DHT22;13298;48.792;9.154;2023-05-14T08:52:30;17.80;99.90
25342;DHT22;13298;48.792;9.154;2023-05-14T08:55:00;18.00;99.90
25342;DHT22;13298;48.792;9.154;2023-05-14T08:57:29;18.10;99.90
25342;DHT22;13298;48.792;9.154;2023-05-14T08:59:56;18.00;99.90
25342;DHT22;13298;48.792;9.154;2023-05-14T09:02:26;18.10;99.90
25342;DHT22;13298;48.792;9.154;2023-05-14T09:04:55;18.10;99.90
25342;DHT22;13298;48.792;9.154;2023-05-14T09:07:23;17.90;99.90
25342;DHT22;13298;48.792;9.154;2023-05-14T09:09:50;17.70;99.90
25342;DHT22;13298;48.792;9.154;2023-05-14T09:12:16;17.50;99.90
25342;DHT22;13298;48.792;9.154;2023-05-14T09:14:42;17.40;99.90
25342;DHT22;13298;48.792;9.154;2023-05-14T09:17:08;17.30;99.90
25342;DHT22;13298;48.792;9.154;2023-05-14T09:19:39;17.50;99.90
25342;DHT22;13298;48.792;9.154;2023-05-14T09:22:11;17.60;99.90
25342;DHT22;13298;48.792;9.154;2023-05-14T09:24:37;17.70;99.90
25342;DHT22;13298;48.792;9.154;2023-05-14T09:27:04;18.00;99.90
25342;DHT22;13298;48.792;9.154;2023-05-14T09:29:30;18.20;99.90
25342;DHT22;13298;48.792;9.154;2023-05-14T09:31:57;18.40;99.90
25342;DHT22;13298;48.792;9.154;2023-05-14T09:34:26;18.40;99.90
25342;DHT22;13298;48.792;9.154;2023-05-14T09:36:57;18.20;99.90
25342;DHT22;13298;48.792;9.154;2023-05-14T09:39:27;18.10;99.90
25342;DHT22;13298;48.792;9.154;2023-05-14T09:41:54;17.90;99.90
25342;DHT22;13298;48.792;9.154;2023-05-14T09:44:21;17.80;99.90
25342;DHT22;13298;48.792;9.154;2023-05-14T09:46:47;17.70;99.90
25342;DHT22;13298;48.792;9.154;2023-05-14T09:49:13;17.60;99.90
25342;DHT22;13298;48.792;9.154;2023-05-14T09:51:40;17.60;99.90
25342;DHT22;13298;48.792;9.154;2023-05-14T09:54:06;17.60;99.90
25342;DHT22;13298;48.792;9.154;2023-05-14T09:56:33;17.70;99.90
25342;DHT22;13298;48.792;9.154;2023-05-14T09:58:59;17.70;99.90
25342;DHT22;13298;48.792;9.154;2023-05-14T10:01:27;17.70;99.90
25342;DHT22;13298;48.792;9.154;2023-05-14T10:03:54;17.80;99.90
25342;DHT22;13298;48.792;9.154;2023-05-14T10:06:27;17.90;99.90
25342;DHT22;13298;48.792;9.154;2023-05-14T10:08:56;18.10;99.90
25342;DHT22;13298;48.792;9.154;2023-05-14T10:11:30;18.20;99.90
25342;DHT22;13298;48.792;9.154;2023-05-14T10:14:09;18.40;99.90
25342;DHT22;13298;48.792;9.154;2023-05-14T10:16:50;18.60;99.90
25342;DHT22;13298;48.792;9.154;2023-05-14T10:19:17;18.70;99.90
25342;DHT22;13298;48.792;9.154;2023-05-14T10:21:48;18.80;99.90
25342;DHT22;13298;48.792;9.154;2023-05-14T10:24:18;18.70;99.90
25342;DHT22;13298;48.792;9.154;2023-05-14T10:26:44;18.70;99.90
25342;DHT22;13298;48.792;9.154;2023-05-14T10:29:11;18.90;99.90
25342;DHT22;13298;48.792;9.154;2023-05-14T10:31:51;19.00;99.90
25342;DHT22;13298;48.792;9.154;2023-05-14T10:34:40;19.20;99.90
25342;DHT22;13298;48.792;9.154;2023-05-14T10:37:22;19.40;99.90
25342;DHT22;13298;48.792;9.154;2023-05-14T10:42:34;19.50;99.90
25342;DHT22;13298;48.792;9.154;2023-05-14T10:45:06;19.40;99.90
25342;DHT22;13298;48.792;9.154;2023-05-14T10:47:34;19.30;99.90
25342;DHT22;13298;48.792;9.154;2023-05-14T10:50:03;19.50;99.90
25342;DHT22;13298;48.792;9.154;2023-05-14T10:52:30;19.60;99.90
25342;DHT22;13298;48.792;9.154;2023-05-14T10:55:00;19.80;99.90
25342;DHT22;13298;48.792;9.154;2023-05-14T10:57:29;19.90;99.90
25342;DHT22;13298;48.792;9.154;2023-05-14T10:59:57;19.90;99.90
25342;DHT22;13298;48.792;9.154;2023-05-14T11:02:30;19.90;99.90
25342;DHT22;13298;48.792;9.154;2023-05-14T11:05:05;19.80;99.90
25342;DHT22;13298;48.792;9.154;2023-05-14T11:07:44;19.50;99.90
25342;DHT22;13298;48.792;9.154;2023-05-14T11:10:15;19.20;99.90
25342;DHT22;13298;48.792;9.154;2023-05-14T11:12:44;18.80;99.90
25342;DHT22;13298;48.792;9.154;2023-05-14T11:15:23;18.40;99.90
25342;DHT22;13298;48.792;9.154;2023-05-14T11:17:51;18.10;99.90
25342;DHT22;13298;48.792;9.154;2023-05-14T11:20:18;18.10;99.90
25342;DHT22;13298;48.792;9.154;2023-05-14T11:22:46;18.30;99.90
25342;DHT22;13298;48.792;9.154;2023-05-14T11:25:13;18.70;99.90
25342;DHT22;13298;48.792;9.154;2023-05-14T11:27:41;19.10;99.90
25342;DHT22;13298;48.792;9.154;2023-05-14T11:32:38;19.30;99.90
25342;DHT22;13298;48.792;9.154;2023-05-14T11:35:05;19.10;99.90
25342;DHT22;13298;48.792;9.154;2023-05-14T11:37:31;19.10;99.90
25342;DHT22;13298;48.792;9.154;2023-05-14T11:39:58;19.00;99.90
25342;DHT22;13298;48.792;9.154;2023-05-14T11:42:24;19.00;99.90
25342;DHT22;13298;48.792;9.154;2023-05-14T11:44:51;19.00;99.90
25342;DHT22;13298;48.792;9.154;2023-05-14T11:47:19;18.90;99.90
25342;DHT22;13298;48.792;9.154;2023-05-14T11:49:46;18.80;99.90
25342;DHT22;13298;48.792;9.154;2023-05-14T11:52:13;18.80;99.90
25342;DHT22;13298;48.792;9.154;2023-05-14T11:54:41;18.60;99.90
25342;DHT22;13298;48.792;9.154;2023-05-14T11:57:26;18.60;99.90
25342;DHT22;13298;48.792;9.154;2023-05-14T11:59:55;18.80;99.90
25342;DHT22;13298;48.792;9.154;2023-05-14T12:02:22;18.80;99.90
25342;DHT22;13298;48.792;9.154;2023-05-14T12:04:52;19.00;99.90
25342;DHT22;13298;48.792;9.154;2023-05-14T12:07:18;19.50;99.90
25342;DHT22;13298;48.792;9.154;2023-05-14T12:09:45;19.80;99.90
25342;DHT22;13298;48.792;9.154;2023-05-14T12:12:18;20.20;99.90
25342;DHT22;13298;48.792;9.154;2023-05-14T12:14:45;20.30;99.90
25342;DHT22;13298;48.792;9.154;2023-05-14T12:17:16;20.40;99.90
25342;DHT22;13298;48.792;9.154;2023-05-14T12:19:52;20.20;99.90
25342;DHT22;13298;48.792;9.154;2023-05-14T12:22:22;19.90;99.90
25342;DHT22;13298;48.792;9.154;2023-05-14T12:24:55;19.50;99.90
25342;DHT22;13298;48.792;9.154;2023-05-14T12:27:23;19.20;99.90
25342;DHT22;13298;48.792;9.154;2023-05-14T12:29:58;18.70;99.90
25342;DHT22;13298;48.792;9.154;2023-05-14T12:32:25;18.40;99.90
25342;DHT22;13298;48.792;9.154;2023-05-14T12:34:50;18.20;99.90
25342;DHT22;13298;48.792;9.154;2023-05-14T12:37:16;18.10;99.90
25342;DHT22;13298;48.792;9.154;2023-05-14T12:39:42;18.10;99.90
25342;DHT22;13298;48.792;9.154;2023-05-14T12:42:08;18.10;99.90
25342;DHT22;13298;48.792;9.154;2023-05-14T12:44:34;18.10;99.90
25342;DHT22;13298;48.792;9.154;2023-05-14T12:46:59;18.30;99.90
25342;DHT22;13298;48.792;9.154;2023-05-14T12:49:25;18.70;99.90
25342;DHT22;13298;48.792;9.154;2023-05-14T12:51:52;19.00;99.90
25342;DHT22;13298;48.792;9.154;2023-05-14T12:54:18;19.10;99.90
25342;DHT22;13298;48.792;9.154;2023-05-14T12:56:43;19.20;99.90
25342;DHT22;13298;48.792;9.154;2023-05-14T12:59:09;19.10;99.90
25342;DHT22;13298;48.792;9.154;2023-05-14T13:01:35;19.30;99.90
25342;DHT22;13298;48.792;9.154;2023-05-14T13:04:02;19.50;99.90
25342;DHT22;13298;48.792;9.154;2023-05-14T13:06:29;19.60;99.90
25342;DHT22;13298;48.792;9.154;2023-05-14T13:08:55;19.70;99.90
25342;DHT22;13298;48.792;9.154;2023-05-14T13:11:24;19.90;99.90
25342;DHT22;13298;48.792;9.154;2023-05-14T13:13:51;20.00;99.90
25342;DHT22;13298;48.792;9.154;2023-05-14T13:16:17;20.10;99.90
25342;DHT22;13298;48.792;9.154;2023-05-14T13:18:42;20.20;99.90
25342;DHT22;13298;48.792;9.154;2023-05-14T13:21:08;20.40;99.90
25342;DHT22;13298;48.792;9.154;2023-05-14T13:23:34;20.80;99.90
25342;DHT22;13298;48.792;9.154;2023-05-14T13:25:59;21.00;99.90
25342;DHT22;13298;48.792;9.154;2023-05-14T13:28:25;20.90;99.90
25342;DHT22;13298;48.792;9.154;2023-05-14T13:31:08;20.60;99.90
25342;DHT22;13298;48.792;9.154;2023-05-14T13:33:39;20.40;99.90
25342;DHT22;13298;48.792;9.154;2023-05-14T13:36:06;20.10;99.90
25342;DHT22;13298;48.792;9.154;2023-05-14T13:38:32;19.80;99.90
25342;DHT22;13298;48.792;9.154;2023-05-14T13:40:58;19.50;99.90
25342;DHT22;13298;48.792;9.154;2023-05-14T13:43:28;19.40;99.90
25342;DHT22;13298;48.792;9.154;2023-05-14T13:45:57;19.30;99.90
25342;DHT22;13298;48.792;9.154;2023-05-14T13:48:24;19.40;99.90
25342;DHT22;13298;48.792;9.154;2023-05-14T13:50:50;19.50;99.90
25342;DHT22;13298;48.792;9.154;2023-05-14T13:53:20;19.50;99.90
25342;DHT22;13298;48.792;9.154;2023-05-14T13:55:47;19.50;99.90
25342;DHT22;13298;48.792;9.154;2023-05-14T13:58:13;19.50;99.90
25342;DHT22;13298;48.792;9.154;2023-05-14T14:00:39;19.40;99.90
25342;DHT22;13298;48.792;9.154;2023-05-14T14:03:05;19.40;99.90
25342;DHT22;13298;48.792;9.154;2023-05-14T14:05:32;19.40;99.90
25342;DHT22;13298;48.792;9.154;2023-05-14T14:07:58;19.40;99.90
25342;DHT22;13298;48.792;9.154;2023-05-14T14:10:24;19.50;99.90
25342;DHT22;13298;48.792;9.154;2023-05-14T14:12:50;19.70;99.90
25342;DHT22;13298;48.792;9.154;2023-05-14T14:15:16;20.00;99.90
25342;DHT22;13298;48.792;9.154;2023-05-14T14:17:42;20.40;99.90
25342;DHT22;13298;48.792;9.154;2023-05-14T14:20:08;20.60;99.90
25342;DHT22;13298;48.792;9.154;2023-05-14T14:22:35;20.60;99.90
25342;DHT22;13298;48.792;9.154;2023-05-14T14:25:01;20.30;98.90
25342;DHT22;13298;48.792;9.154;2023-05-14T14:27:27;20.10;99.20
25342;DHT22;13298;48.792;9.154;2023-05-14T14:29:55;19.90;99.90
25342;DHT22;13298;48.792;9.154;2023-05-14T14:32:21;19.90;99.90
25342;DHT22;13298;48.792;9.154;2023-05-14T14:34:46;19.90;99.90
25342;DHT22;13298;48.792;9.154;2023-05-14T14:37:12;19.70;99.90
25342;DHT22;13298;48.792;9.154;2023-05-14T14:39:38;19.60;99.90
25342;DHT22;13298;48.792;9.154;2023-05-14T14:42:04;19.50;99.90
25342;DHT22;13298;48.792;9.154;2023-05-14T14:44:30;19.60;99.90
25342;DHT22;13298;48.792;9.154;2023-05-14T14:46:55;19.50;99.90
25342;DHT22;13298;48.792;9.154;2023-05-14T14:49:22;19.40;99.90
25342;DHT22;13298;48.792;9.154;2023-05-14T14:51:47;19.10;99.90
25342;DHT22;13298;48.792;9.154;2023-05-14T14:54:13;19.10;99.90
25342;DHT22;13298;48.792;9.154;2023-05-14T14:56:39;19.10;99.90
25342;DHT22;13298;48.792;9.154;2023-05-14T14:59:05;19.40;99.90
25342;DHT22;13298;48.792;9.154;2023-05-14T15:01:30;19.40;99.90
25342;DHT22;13298;48.792;9.154;2023-05-14T15:03:56;19.10;99.90
25342;DHT22;13298;48.792;9.154;2023-05-14T15:06:22;18.90;99.90
25342;DHT22;13298;48.792;9.154;2023-05-14T15:08:47;19.00;99.90
25342;DHT22;13298;48.792;9.154;2023-05-14T15:11:13;19.30;99.90
25342;DHT22;13298;48.792;9.154;2023-05-14T15:13:39;19.60;99.90
25342;DHT22;13298;48.792;9.154;2023-05-14T15:16:06;19.80;99.90
25342;DHT22;13298;48.792;9.154;2023-05-14T15:18:31;20.10;99.90
25342;DHT22;13298;48.792;9.154;2023-05-14T15:20:57;20.40;99.90
25342;DHT22;13298;48.792;9.154;2023-05-14T15:23:23;20.90;99.90
25342;DHT22;13298;48.792;9.154;2023-05-14T15:25:48;21.20;99.90
25342;DHT22;13298;48.792;9.154;2023-05-14T15:28:14;21.50;99.90
25342;DHT22;13298;48.792;9.154;2023-05-14T15:30:40;21.80;99.90
25342;DHT22;13298;48.792;9.154;2023-05-14T15:33:09;22.10;98.40
25342;DHT22;13298;48.792;9.154;2023-05-14T15:35:35;22.30;98.00
25342;DHT22;13298;48.792;9.154;2023-05-14T15:38:01;22.30;97.00
25342;DHT22;13298;48.792;9.154;2023-05-14T15:40:26;22.10;97.40
25342;DHT22;13298;48.792;9.154;2023-05-14T15:42:52;21.80;97.90